Time;durP1;ratioP1;P1;durP2;ratioP2;P2;SDS_P1;SDS_P2;PMS_P1;PMS_P2;Temp;Humidity;BMP_temperature;BMP_pressure;BME280_temperature;BME280_humidity;BME280_pressure;Samples;Min_cycle;Max_cycle;Signal;HPM_P1;HPM_P2
2022/04/26 03:37:37;;;;;;;12.87;9.57;;;1.40;99.90;0.50;100091;;;;572018;251;24137;-79
2022/04/26 03:40:08;;;;;;;12.10;8.23;;;1.40;99.90;0.50;100094;;;;582729;244;24061;-79
2022/04/26 03:42:33;;;;;;;12.27;8.93;;;1.50;99.90;0.60;100098;;;;571609;251;24095;-78
2022/04/26 03:45:01;;;;;;;12.57;9.20;;;1.50;99.90;0.70;100104;;;;582674;244;24070;-79
2022/04/26 03:47:29;;;;;;;10.73;9.63;;;1.50;99.90;0.80;100103;;;;572005;251;24106;-77
2022/04/26 03:49:57;;;;;;;14.07;8.57;;;1.60;99.90;0.80;100093;;;;582449;241;24069;-79
2022/04/26 03:52:25;;;;;;;9.93;7.73;;;1.70;99.90;0.90;100098;;;;571444;251;24129;-78
2022/04/26 03:54:53;;;;;;;11.60;8.40;;;1.80;99.90;1.00;100098;;;;582702;244;24111;-78
2022/04/26 03:57:20;;;;;;;12.10;7.90;;;1.80;99.90;1.10;100111;;;;571435;251;24116;-79
2022/04/26 03:59:48;;;;;;;10.00;7.03;;;2.00;99.90;1.20;100114;;;;582712;241;24113;-82
2022/04/26 04:02:16;;;;;;;9.53;8.07;;;2.00;99.90;1.40;100113;;;;571296;246;25141;-80
2022/04/26 04:04:44;;;;;;;9.23;7.73;;;2.20;99.90;1.40;100106;;;;571722;245;24138;-81
2022/04/26 04:07:12;;;;;;;8.53;7.47;;;2.30;99.90;1.50;100104;;;;582304;240;24074;-79
2022/04/26 04:09:40;;;;;;;11.87;7.93;;;2.30;99.90;1.60;100119;;;;571722;245;24127;-79
2022/04/26 04:12:08;;;;;;;11.87;8.00;;;2.40;99.90;1.60;100114;;;;582304;244;24077;-79
2022/04/26 04:14:36;;;;;;;9.53;8.10;;;2.50;99.90;1.70;100115;;;;571747;251;24094;-83
2022/04/26 04:17:04;;;;;;;11.03;8.13;;;2.50;99.90;1.80;100117;;;;582377;241;24121;-82
2022/04/26 04:19:32;;;;;;;13.43;8.50;;;2.60;99.90;1.90;100120;;;;571747;251;24092;-78
2022/04/26 04:21:59;;;;;;;8.70;6.87;;;2.70;99.90;2.00;100124;;;;582405;241;24063;-79
2022/04/26 04:24:27;;;;;;;8.17;5.33;;;2.80;99.90;2.60;100127;;;;571694;251;24131;-79
2022/04/26 04:26:55;;;;;;;10.00;5.40;;;3.30;99.90;4.40;100129;;;;583684;241;24119;-79
2022/04/26 04:29:23;;;;;;;9.23;5.93;;;4.80;99.90;6.10;100134;;;;572770;250;24120;-79
2022/04/26 04:31:51;;;;;;;9.83;7.07;;;6.60;99.90;7.70;100156;;;;583042;243;24127;-78
2022/04/26 04:34:20;;;;;;;6.70;5.33;;;9.90;99.90;9.20;100156;;;;572489;250;24167;-78
2022/04/26 04:36:47;;;;;;;7.03;5.43;;;9.80;99.90;10.60;100163;;;;582826;244;24077;-78
2022/04/26 04:39:19;;;;;;;4.90;4.40;;;11.40;99.90;11.90;100168;;;;583222;244;24123;-78
2022/04/26 04:41:43;;;;;;;5.93;3.97;;;12.70;99.90;13.10;100173;;;;582905;244;24078;-78
2022/04/26 04:44:12;;;;;;;4.97;3.90;;;15.10;99.90;14.30;100174;;;;572205;248;25199;-81
2022/04/26 04:46:40;;;;;;;3.93;3.53;;;15.10;99.90;15.00;100168;;;;582934;246;24076;-82
2022/04/26 04:49:08;;;;;;;4.20;3.60;;;16.00;99.90;16.00;100175;;;;571133;249;24131;-78
2022/04/26 04:51:35;;;;;;;3.70;3.40;;;17.00;99.90;17.00;100184;;;;578408;248;24091;-79
2022/04/26 04:54:04;;;;;;;3.80;3.37;;;18.90;99.90;17.90;100187;;;;578337;248;24094;-81
2022/04/26 04:56:32;;;;;;;3.83;3.47;;;18.80;99.90;18.70;100183;;;;578347;248;24094;-79
2022/04/26 04:59:00;;;;;;;5.33;4.00;;;19.70;99.90;19.70;100187;;;;580092;247;24107;-79
2022/04/26 05:01:28;;;;;;;5.43;4.40;;;20.60;98.30;20.50;100190;;;;580062;247;24093;-79
2022/04/26 05:03:56;;;;;;;3.97;3.67;;;21.50;91.40;21.40;100188;;;;571802;246;24131;-81
2022/04/26 05:06:24;;;;;;;4.53;4.13;;;22.40;81.20;22.10;100190;;;;570829;249;24176;-82
2022/04/26 05:08:51;;;;;;;7.77;3.67;;;23.20;69.20;23.00;100190;;;;578003;248;24151;-82
2022/04/26 05:11:19;;;;;;;3.90;3.50;;;24.00;64.10;23.70;100191;;;;578065;248;23111;-82
2022/04/26 05:13:47;;;;;;;3.87;3.57;;;24.70;59.50;24.40;100195;;;;578108;248;23127;-81
2022/04/26 05:16:15;;;;;;;3.90;3.27;;;25.30;56.40;25.10;100190;;;;579889;247;23134;-81
2022/04/26 05:18:44;;;;;;;3.90;3.57;;;26.80;50.30;25.90;100194;;;;579869;247;24099;-78
2022/04/26 05:21:16;;;;;;;3.40;3.20;;;26.80;50.30;26.70;100197;;;;579806;247;24090;-79
2022/04/26 05:26:29;;;;;;;3.90;3.60;;;28.30;46.50;27.80;100212;;;;579853;247;24165;-80
2022/04/26 05:28:53;;;;;;;3.22;2.90;;;28.70;45.60;28.20;100211;;;;579663;247;23104;-79
2022/04/26 05:31:22;;;;;;;2.72;2.53;;;29.80;43.20;29.00;100223;;;;579881;247;23108;-80
2022/04/26 05:33:50;;;;;;;3.42;3.12;;;29.70;43.10;29.60;100229;;;;579869;247;23107;-81
2022/04/26 05:36:18;;;;;;;3.42;3.12;;;30.40;42.00;30.40;100231;;;;571265;246;23113;-81
2022/04/26 05:38:46;;;;;;;5.12;2.80;;;31.70;40.30;31.00;100241;;;;583740;241;23098;-80
2022/04/26 05:41:14;;;;;;;2.50;2.30;;;31.60;40.20;31.10;100231;;;;571875;246;23102;-81
2022/04/26 05:43:42;;;;;;;2.90;2.67;;;31.90;38.60;31.40;100235;;;;578846;248;24133;-81
2022/04/26 05:46:13;;;;;;;3.33;3.03;;;32.20;38.40;31.70;100240;;;;573879;248;35229;-81
2022/04/26 05:48:42;;;;;;;3.30;3.10;;;32.40;37.00;31.60;100243;;;;578744;248;24102;-82
2022/04/26 05:51:13;;;;;;;2.90;2.70;;;32.40;37.00;31.70;100245;;;;581027;247;23119;-82
2022/04/26 05:53:37;;;;;;;3.33;2.90;;;32.50;37.00;32.40;100248;;;;580551;247;23176;-81
2022/04/26 05:56:06;;;;;;;2.87;2.67;;;33.10;36.70;33.10;100251;;;;580263;247;24184;-81
2022/04/26 05:58:34;;;;;;;4.45;3.00;;;34.10;35.70;33.40;100255;;;;580183;247;23120;-81
2022/04/26 06:01:03;;;;;;;2.95;2.70;;;34.00;35.60;34.00;100259;;;;580150;247;23112;-80
2022/04/26 06:03:30;;;;;;;3.47;3.17;;;34.70;35.20;34.60;100257;;;;580214;247;23106;-82
2022/04/26 06:05:58;;;;;;;1.80;1.70;;;35.50;33.30;34.80;100262;;;;580243;247;24127;-81
2022/04/26 06:08:26;;;;;;;3.17;1.85;;;35.40;33.20;35.10;100265;;;;580154;247;24149;-81
2022/04/26 06:10:54;;;;;;;1.67;1.58;;;35.70;32.60;35.40;100267;;;;580412;247;23180;-81
2022/04/26 06:13:23;;;;;;;1.58;1.52;;;36.30;32.00;35.60;100268;;;;580113;247;23116;-81
2022/04/26 06:15:51;;;;;;;1.90;1.80;;;36.30;32.00;35.70;100268;;;;579857;247;23119;-81
2022/04/26 06:18:19;;;;;;;2.50;1.98;;;36.40;31.30;36.10;100272;;;;579872;247;23104;-81
2022/04/26 06:20:46;;;;;;;2.22;2.03;;;36.70;31.00;36.10;100280;;;;579886;247;23143;-80
2022/04/26 06:23:14;;;;;;;2.03;1.92;;;36.80;30.80;36.00;100280;;;;579859;247;24145;-81
2022/04/26 06:25:42;;;;;;;2.60;2.10;;;36.70;30.30;36.20;100288;;;;579895;247;23199;-82
2022/04/26 06:28:10;;;;;;;3.10;1.75;;;36.80;30.50;36.40;100284;;;;579826;247;23146;-80
2022/04/26 06:30:38;;;;;;;2.17;2.03;;;37.00;30.60;36.50;100281;;;;579878;247;23133;-81
2022/04/26 06:33:08;;;;;;;3.60;2.22;;;37.10;30.20;36.50;100281;;;;580024;247;23107;-81
2022/04/26 06:35:36;;;;;;;4.03;2.20;;;37.20;30.30;36.90;100286;;;;580279;247;23134;-81
2022/04/26 06:38:05;;;;;;;2.10;2.00;;;37.50;29.70;36.90;100290;;;;580339;247;24133;-81
2022/04/26 06:40:33;;;;;;;2.10;1.90;;;37.40;29.60;37.10;100292;;;;580131;247;24146;-80
2022/04/26 06:43:05;;;;;;;2.20;2.00;;;37.60;29.90;37.70;100287;;;;579955;247;23099;-81
2022/04/26 06:45:33;;;;;;;4.45;2.08;;;38.00;29.60;38.00;100297;;;;579919;247;23174;-81
2022/04/26 06:48:01;;;;;;;3.05;2.20;;;38.40;28.90;38.20;100295;;;;579949;247;23095;-80
2022/04/26 06:50:29;;;;;;;2.85;1.62;;;38.70;28.50;38.30;100299;;;;581348;246;24124;-79
2022/04/26 06:52:57;;;;;;;1.80;1.80;;;38.70;28.50;38.20;100296;;;;581165;247;23118;-81
2022/04/26 06:55:25;;;;;;;4.15;1.83;;;38.70;27.50;38.50;100305;;;;580717;247;23111;-80
2022/04/26 06:57:53;;;;;;;1.83;1.73;;;38.90;28.00;38.60;100299;;;;580823;247;24153;-81
2022/04/26 07:00:22;;;;;;;2.40;1.70;;;39.30;27.70;39.00;100311;;;;580413;247;23188;-81
2022/04/26 07:02:50;;;;;;;2.75;1.65;;;39.30;27.60;39.60;100311;;;;580399;247;23130;-80
2022/04/26 07:05:18;;;;;;;1.27;1.27;;;39.80;27.40;39.70;100310;;;;580354;247;23092;-80
2022/04/26 07:07:49;;;;;;;1.25;1.20;;;40.10;26.30;39.60;100321;;;;580091;247;24181;-82
2022/04/26 07:10:14;;;;;;;1.20;1.20;;;40.10;26.30;39.60;100321;;;;579775;247;24124;-81
2022/04/26 07:12:46;;;;;;;1.55;1.27;;;40.10;26.40;39.60;100324;;;;580125;247;23102;-83
2022/04/26 07:15:10;;;;;;;1.37;1.37;;;40.00;26.10;39.70;100326;;;;579851;247;23138;-82
2022/04/26 07:17:45;;;;;;;1.27;1.27;;;40.20;26.00;39.70;100333;;;;580095;247;23127;-82
2022/04/26 07:20:10;;;;;;;1.17;1.10;;;40.40;25.60;40.00;100344;;;;571802;245;24137;-81
2022/04/26 07:22:38;;;;;;;1.12;1.12;;;40.40;25.50;40.20;100340;;;;582505;244;23108;-81
2022/04/26 07:25:06;;;;;;;2.15;1.10;;;40.50;25.60;40.00;100339;;;;582368;241;23091;-81
2022/04/26 07:27:34;;;;;;;0.90;0.90;;;40.20;23.80;39.40;100349;;;;570765;251;23119;-81
2022/04/26 07:30:02;;;;;;;0.82;0.82;;;40.20;23.80;39.10;100351;;;;577945;248;24120;-80
2022/04/26 07:35:16;;;;;;;0.90;0.90;;;39.70;24.40;39.00;100356;;;;578108;248;23138;-81
2022/04/26 07:37:44;;;;;;;1.23;1.20;;;39.70;24.60;39.70;100363;;;;574815;247;35256;-80
2022/04/26 07:40:13;;;;;;;1.17;1.08;;;40.20;24.50;39.70;100374;;;;579848;247;23100;-81
2022/04/26 07:42:40;;;;;;;1.33;1.20;;;40.20;24.50;39.90;100367;;;;579836;247;24122;-82
2022/04/26 07:45:09;;;;;;;1.05;1.05;;;40.30;24.60;40.30;100367;;;;579838;247;23096;-82
2022/04/26 07:47:36;;;;;;;1.40;1.10;;;40.60;24.30;40.50;100368;;;;579787;247;23114;-82
2022/04/26 07:50:04;;;;;;;1.48;1.30;;;40.90;24.80;41.10;100372;;;;579991;247;24153;-83
2022/04/26 07:52:33;;;;;;;0.90;0.90;;;42.00;24.80;41.50;100386;;;;580322;247;23080;-80
2022/04/26 07:55:01;;;;;;;0.93;0.93;;;41.90;24.70;41.30;100386;;;;579861;247;23133;-82
2022/04/26 07:57:29;;;;;;;1.20;1.20;;;41.90;23.90;41.30;100392;;;;579828;247;23111;-82
2022/04/26 07:59:58;;;;;;;1.00;1.00;;;41.70;23.90;41.10;100383;;;;579923;245;23126;-83
2022/04/26 08:02:25;;;;;;;2.35;1.40;;;41.70;23.90;41.20;100388;;;;581286;247;23168;-82
2022/04/26 08:04:55;;;;;;;1.17;1.17;;;41.80;23.80;41.50;100387;;;;580851;247;23160;-81
2022/04/26 08:07:21;;;;;;;1.27;1.27;;;42.00;23.50;41.70;100391;;;;580641;247;23259;-82
2022/04/26 08:09:50;;;;;;;2.28;1.00;;;42.30;23.30;41.60;100390;;;;580556;247;23113;-82
2022/04/26 08:12:18;;;;;;;1.15;1.15;;;42.20;23.20;41.50;100395;;;;580350;247;23119;-82
2022/04/26 08:14:45;;;;;;;1.58;1.48;;;42.30;23.60;41.70;100399;;;;580384;247;23114;-82
2022/04/26 08:17:17;;;;;;;1.70;1.60;;;42.60;24.00;42.00;100405;;;;580363;247;23154;-81
2022/04/26 08:19:45;;;;;;;1.42;1.40;;;42.60;24.00;42.40;100408;;;;580180;247;23123;-81
2022/04/26 08:22:13;;;;;;;1.40;1.30;;;42.90;23.70;42.30;100411;;;;580110;247;23113;-80
2022/04/26 08:27:30;;;;;;;1.08;1.08;;;43.00;22.90;41.10;100415;;;;580123;247;24120;-82
2022/04/26 08:29:56;;;;;;;1.10;1.10;;;42.50;22.90;41.10;100414;;;;580066;247;23111;-81
2022/04/26 08:32:26;;;;;;;1.40;1.40;;;42.30;22.90;41.00;100415;;;;579929;247;23090;-81
2022/04/26 08:34:51;;;;;;;1.62;1.52;;;42.20;23.20;41.40;100414;;;;580348;246;23103;-81
2022/04/26 08:37:23;;;;;;;2.00;1.62;;;42.40;23.60;41.90;100411;;;;579919;247;23143;-81
2022/04/26 08:39:51;;;;;;;1.58;1.58;;;43.10;23.10;41.90;100414;;;;579620;247;24153;-81
2022/04/26 08:42:19;;;;;;;1.45;1.45;;;43.10;23.00;41.40;100408;;;;579548;247;23095;-82
2022/04/26 08:44:43;;;;;;;1.58;1.58;;;43.00;22.80;40.80;100413;;;;579645;247;23107;-81
2022/04/26 08:52:47;;;;;;;2.67;1.33;;;42.60;23.50;41.20;100426;;;;579939;247;24152;-81
2022/04/26 08:55:15;;;;;;;1.98;1.83;;;42.70;22.80;41.00;100424;;;;579765;247;23110;-82
2022/04/26 08:57:46;;;;;;;1.73;1.62;;;42.60;23.00;40.90;100426;;;;571688;251;23139;-81
2022/04/26 09:00:14;;;;;;;1.58;1.58;;;42.40;23.20;41.40;100418;;;;581858;241;23079;-81
2022/04/26 09:02:42;;;;;;;1.58;1.48;;;42.60;23.50;41.40;100426;;;;570841;249;23129;-82
2022/04/26 09:05:09;;;;;;;3.05;1.80;;;42.80;22.70;41.80;100433;;;;577965;248;24165;-82
2022/04/26 09:07:40;;;;;;;2.20;1.45;;;43.10;23.00;42.00;100427;;;;578053;248;23100;-81
2022/04/26 09:10:11;;;;;;;1.60;1.50;;;43.40;22.90;42.20;100436;;;;577927;248;23123;-81
2022/04/26 09:13:09;;;;;;;1.70;1.60;;;43.70;23.30;42.80;100436;;;;575570;246;35261;-81
2022/04/26 09:15:41;;;;;;;1.62;1.52;;;44.50;23.20;42.50;100444;;;;580923;247;23124;-81
2022/04/26 09:18:27;;;;;;;1.55;1.45;;;44.20;23.10;42.90;100437;;;;580368;247;23103;-82
2022/04/26 09:20:56;;;;;;;1.40;1.40;;;44.40;23.30;43.50;100441;;;;580786;247;23128;-81
2022/04/26 09:23:30;;;;;;;3.03;1.48;;;44.90;22.30;43.20;100447;;;;572143;250;23108;-82
2022/04/26 09:26:12;;;;;;;2.28;1.20;;;45.00;22.40;43.30;100438;;;;572048;248;23104;-82
2022/04/26 09:28:40;;;;;;;1.40;1.30;;;45.10;22.10;43.00;100449;;;;571646;251;24159;-81
2022/04/26 09:31:29;;;;;;;1.00;1.00;;;45.20;21.80;41.90;100440;;;;572121;250;24138;-82
2022/04/26 09:33:57;;;;;;;1.27;1.17;;;44.50;22.10;41.90;100439;;;;572039;248;23095;-80
2022/04/26 09:36:25;;;;;;;3.03;1.17;;;44.00;22.50;41.70;100440;;;;572076;248;24171;-81
2022/04/26 09:38:56;;;;;;;1.15;1.10;;;43.90;22.20;40.90;100445;;;;572036;251;23133;-81
2022/04/26 09:41:23;;;;;;;1.90;1.30;;;43.50;21.90;39.70;100444;;;;569597;251;24152;-82
2022/04/26 09:44:05;;;;;;;2.05;1.20;;;42.20;23.20;40.40;100446;;;;571529;251;23113;-81
2022/04/26 09:46:45;;;;;;;1.15;1.12;;;42.20;23.20;41.10;100445;;;;572015;248;24149;-81
2022/04/26 09:49:18;;;;;;;1.30;1.30;;;42.80;22.60;40.80;100441;;;;582166;244;23084;-81
2022/04/26 09:51:40;;;;;;;2.72;1.42;;;42.90;22.30;40.40;100451;;;;581696;244;23102;-82
2022/04/26 09:54:08;;;;;;;4.15;1.70;;;42.70;23.00;40.20;100449;;;;571565;248;23102;-81
2022/04/26 09:56:39;;;;;;;2.58;1.70;;;42.70;22.60;39.30;100440;;;;571238;249;23196;-82
2022/04/26 09:59:05;;;;;;;1.80;1.73;;;42.00;22.90;39.70;100448;;;;582071;244;23134;-82
2022/04/26 10:01:45;;;;;;;2.72;1.60;;;42.00;22.90;39.40;100459;;;;571086;245;23163;-81
2022/04/26 10:04:10;;;;;;;2.30;1.35;;;42.00;22.80;38.70;100450;;;;570561;249;23117;-81
2022/04/26 10:06:38;;;;;;;1.30;1.20;;;41.50;23.40;38.40;100449;;;;577594;248;23115;-81
2022/04/26 10:09:05;;;;;;;1.20;1.20;;;41.00;22.70;37.70;100452;;;;577864;248;23161;-81
2022/04/26 10:11:33;;;;;;;1.55;1.45;;;40.40;23.20;37.00;100455;;;;571574;251;23218;-80
2022/04/26 10:14:07;;;;;;;2.35;1.55;;;39.70;23.70;36.80;100451;;;;582012;241;23095;-80
2022/04/26 10:16:36;;;;;;;5.90;2.70;;;38.80;23.80;36.00;100453;;;;571043;249;23140;-80
2022/04/26 10:19:07;;;;;;;3.85;2.50;;;38.70;23.70;34.30;100448;;;;570621;249;24172;-80
2022/04/26 10:21:32;;;;;;;2.05;1.87;;;37.60;24.30;32.90;100456;;;;577403;248;24142;-79
2022/04/26 10:24:03;;;;;;;5.70;2.85;;;36.10;24.70;31.90;100448;;;;578570;246;24167;-80
2022/04/26 10:26:33;;;;;;;3.83;2.58;;;34.90;24.90;30.40;100447;;;;579085;248;23154;-80
2022/04/26 10:28:58;;;;;;;3.35;2.60;;;33.70;25.00;28.80;100443;;;;580122;247;24140;-80
2022/04/26 10:31:38;;;;;;;7.23;2.60;;;32.10;25.80;27.50;100440;;;;580255;247;23141;-79
2022/04/26 10:34:20;;;;;;;2.60;2.40;;;30.60;27.20;26.10;100448;;;;580076;247;24155;-81
2022/04/26 10:36:43;;;;;;;5.43;2.33;;;29.20;27.70;25.00;100442;;;;579683;247;24129;-80
2022/04/26 10:39:14;;;;;;;7.00;3.73;;;27.80;29.10;24.00;100441;;;;580059;247;24190;-81
2022/04/26 10:41:45;;;;;;;2.37;2.00;;;26.40;29.80;22.80;100436;;;;580121;247;24141;-80
2022/04/26 10:44:16;;;;;;;4.33;1.63;;;25.10;30.10;21.60;100434;;;;579590;247;24132;-80
2022/04/26 10:46:52;;;;;;;1.93;1.83;;;23.70;32.40;20.70;100435;;;;579487;247;24123;-80
2022/04/26 10:49:26;;;;;;;2.77;1.50;;;22.50;34.30;19.80;100423;;;;579730;247;24122;-80
2022/04/26 10:52:18;;;;;;;4.10;1.30;;;21.40;35.60;19.00;100422;;;;580035;247;24117;-79
2022/04/26 10:54:58;;;;;;;5.30;1.50;;;20.40;38.10;18.10;100427;;;;580167;247;24132;-79
2022/04/26 10:57:27;;;;;;;2.80;1.33;;;19.30;38.50;17.40;100420;;;;580417;247;24109;-81
2022/04/26 11:00:14;;;;;;;6.20;1.27;;;18.40;39.70;16.90;100414;;;;579777;247;24128;-81
2022/04/26 11:02:44;;;;;;;4.27;1.50;;;17.80;40.90;16.60;100429;;;;579578;247;24093;-80
2022/04/26 11:05:14;;;;;;;1.50;1.40;;;17.20;42.10;16.20;100414;;;;579549;247;24105;-80
2022/04/26 11:07:46;;;;;;;3.40;1.40;;;16.50;43.50;15.90;100416;;;;579309;247;24104;-80
2022/04/26 11:10:14;;;;;;;1.40;1.30;;;16.50;43.40;15.60;100420;;;;579666;247;24114;-81
2022/04/26 11:12:43;;;;;;;2.63;1.67;;;16.10;43.90;15.30;100412;;;;579786;247;24101;-80
2022/04/26 11:15:15;;;;;;;7.87;1.90;;;15.80;44.30;15.10;100418;;;;579864;247;24112;-80
2022/04/26 11:17:43;;;;;;;4.07;1.70;;;15.60;43.90;14.80;100421;;;;574846;247;46196;-79
2022/04/26 11:20:12;;;;;;;2.10;1.37;;;15.40;44.90;14.50;100417;;;;580073;247;24133;-79
2022/04/26 11:22:51;;;;;;;3.80;1.20;;;15.10;46.10;14.30;100423;;;;579748;247;24097;-79
2022/04/26 11:28:11;;;;;;;6.63;1.30;;;14.70;46.90;14.00;100419;;;;579742;247;24109;-79
2022/04/26 11:30:52;;;;;;;2.10;1.30;;;14.50;45.50;13.90;100417;;;;579550;247;24143;-80
2022/04/26 11:33:25;;;;;;;1.40;1.30;;;14.40;45.40;13.70;100414;;;;579412;247;24102;-79
2022/04/26 11:35:58;;;;;;;3.13;1.63;;;14.30;45.20;13.60;100421;;;;580352;246;24112;-79
2022/04/26 11:38:27;;;;;;;4.07;1.83;;;14.20;46.20;13.50;100418;;;;580826;247;24120;-79
2022/04/26 11:40:54;;;;;;;2.73;1.40;;;14.10;46.30;13.40;100431;;;;580493;247;24085;-79
2022/04/26 11:43:22;;;;;;;3.23;1.60;;;14.00;46.50;13.30;100422;;;;580000;246;24097;-79
2022/04/26 11:45:53;;;;;;;4.47;1.57;;;13.80;46.70;13.20;100414;;;;580126;247;24100;-79
2022/04/26 11:48:21;;;;;;;2.40;1.80;;;13.80;46.70;13.10;100412;;;;580259;247;24121;-79
2022/04/26 11:50:49;;;;;;;2.70;1.50;;;13.80;46.20;13.10;100415;;;;580042;247;24102;-79
2022/04/26 11:53:21;;;;;;;3.00;2.00;;;13.70;47.50;13.00;100419;;;;580079;247;25150;-79
2022/04/26 11:55:54;;;;;;;4.47;1.87;;;13.60;47.50;13.00;100412;;;;580194;247;24168;-79
2022/04/26 11:58:23;;;;;;;6.17;1.97;;;13.60;47.90;13.00;100408;;;;579834;247;24124;-79
2022/04/26 12:01:11;;;;;;;7.43;1.57;;;13.60;47.90;13.00;100416;;;;579301;247;24135;-79
2022/04/26 12:03:40;;;;;;;3.50;1.87;;;13.60;47.90;12.90;100415;;;;579836;247;24096;-79
2022/04/26 12:06:07;;;;;;;2.60;1.93;;;13.50;47.60;12.90;100405;;;;579549;247;24104;-80
2022/04/26 12:08:44;;;;;;;2.80;1.67;;;13.50;47.70;12.80;100408;;;;579782;246;24099;-79
2022/04/26 12:11:35;;;;;;;6.10;1.70;;;13.40;47.90;12.70;100406;;;;579771;247;24090;-78
2022/04/26 12:14:11;;;;;;;5.53;1.60;;;13.40;48.40;12.70;100410;;;;571072;251;24177;-80
2022/04/26 12:16:49;;;;;;;5.83;1.97;;;13.30;49.30;12.70;100411;;;;582078;244;24080;-80
2022/04/26 12:19:14;;;;;;;1.27;1.27;;;13.30;49.40;12.70;100407;;;;571184;250;24097;-81
2022/04/26 12:21:47;;;;;;;6.03;1.70;;;13.30;49.70;12.70;100410;;;;570670;249;24099;-80
2022/04/26 12:24:27;;;;;;;2.80;1.80;;;13.30;50.30;12.70;100415;;;;572561;248;35243;-80
2022/04/26 12:26:55;;;;;;;6.50;1.70;;;13.30;49.60;12.70;100391;;;;571424;251;24093;-79
2022/04/26 12:29:29;;;;;;;1.93;1.30;;;13.30;49.50;12.70;100405;;;;570580;247;24159;-80
2022/04/26 12:31:57;;;;;;;2.50;1.33;;;13.30;49.30;12.70;100401;;;;577790;248;24185;-79
2022/04/26 12:34:28;;;;;;;5.57;1.80;;;13.30;49.50;12.70;100405;;;;577790;248;24148;-80
2022/04/26 12:36:57;;;;;;;4.63;1.73;;;13.40;49.50;12.70;100413;;;;577377;248;24114;-80
2022/04/26 12:39:23;;;;;;;1.83;1.53;;;13.30;50.60;12.70;100406;;;;579674;247;24164;-80
2022/04/26 12:41:56;;;;;;;3.47;1.97;;;13.30;50.90;12.70;100403;;;;579652;247;24130;-80
2022/04/26 12:44:20;;;;;;;2.10;1.90;;;13.30;50.90;12.70;100409;;;;579414;247;24129;-79
2022/04/26 12:52:08;;;;;;;2.93;2.13;;;13.30;50.40;12.60;100410;;;;580564;247;24104;-80
2022/04/26 12:54:32;;;;;;;3.13;1.70;;;13.30;50.10;12.70;100408;;;;582412;246;24063;-79
2022/04/26 12:57:01;;;;;;;2.23;1.67;;;13.30;50.50;12.70;100417;;;;571771;249;24124;-80
2022/04/26 12:59:36;;;;;;;3.33;1.70;;;13.30;50.50;12.70;100415;;;;578457;248;24102;-78
2022/04/26 13:02:07;;;;;;;1.77;1.67;;;13.30;50.50;12.60;100415;;;;578246;248;24125;-81
2022/04/26 13:04:31;;;;;;;5.57;1.57;;;13.30;49.80;12.60;100415;;;;577991;248;24155;-79
2022/04/26 13:06:59;;;;;;;7.03;1.63;;;13.30;50.20;12.70;100415;;;;579995;247;24092;-80
2022/04/26 13:09:28;;;;;;;4.73;1.70;;;13.30;50.40;12.70;100405;;;;580118;247;24121;-79
2022/04/26 13:11:55;;;;;;;1.43;1.33;;;13.30;50.40;12.60;100411;;;;579959;247;24150;-80
2022/04/26 13:14:23;;;;;;;2.23;1.40;;;13.30;50.80;12.70;100403;;;;579964;247;24117;-80
2022/04/26 13:16:51;;;;;;;1.40;1.30;;;13.30;50.90;12.70;100404;;;;579953;247;24101;-79
2022/04/26 13:19:19;;;;;;;1.73;1.37;;;13.30;50.90;12.70;100400;;;;579973;247;24097;-79
2022/04/26 13:21:47;;;;;;;1.50;1.20;;;13.30;51.20;12.70;100405;;;;579901;247;24136;-80
2022/04/26 13:24:16;;;;;;;2.17;1.23;;;13.30;50.60;12.60;100402;;;;579728;247;24136;-80
2022/04/26 13:26:44;;;;;;;1.30;1.20;;;13.20;50.90;12.60;100394;;;;579673;247;24191;-80
2022/04/26 13:29:11;;;;;;;1.83;1.40;;;13.20;50.90;12.60;100405;;;;579615;247;24128;-79
2022/04/26 13:31:39;;;;;;;2.63;1.40;;;13.30;51.60;12.60;100406;;;;579746;247;24152;-79
2022/04/26 13:34:07;;;;;;;4.77;1.63;;;13.20;52.20;12.60;100404;;;;579705;247;24103;-78
2022/04/26 13:36:35;;;;;;;1.17;1.10;;;13.20;52.70;12.60;100398;;;;579778;247;24139;-80
2022/04/26 13:39:03;;;;;;;1.63;1.53;;;13.20;53.00;12.70;100405;;;;579970;247;24105;-80
2022/04/26 13:41:31;;;;;;;4.17;2.23;;;13.30;53.00;12.70;100411;;;;574737;247;36170;-79
2022/04/26 13:43:59;;;;;;;1.53;1.40;;;13.30;52.70;12.60;100395;;;;579805;247;24109;-80
2022/04/26 13:46:37;;;;;;;1.57;1.43;;;13.30;52.70;12.60;100407;;;;579773;247;24116;-80
2022/04/26 13:49:09;;;;;;;2.33;2.13;;;13.30;53.00;12.60;100420;;;;579771;247;24111;-79
2022/04/26 13:51:37;;;;;;;3.50;1.90;;;13.20;53.10;12.50;100431;;;;579864;247;24089;-78
2022/04/26 13:54:05;;;;;;;1.23;1.13;;;13.20;53.20;12.50;100422;;;;579808;247;24134;-79
2022/04/26 13:56:34;;;;;;;2.60;1.30;;;13.20;53.20;12.50;100423;;;;579643;247;24106;-79
2022/04/26 13:59:02;;;;;;;1.33;1.30;;;13.10;53.40;12.60;100420;;;;581139;245;24192;-79
2022/04/26 14:01:30;;;;;;;1.17;1.17;;;13.20;52.10;12.70;100423;;;;580820;247;24096;-80
2022/04/26 14:03:58;;;;;;;0.83;0.80;;;13.30;51.30;12.70;100429;;;;580465;247;24152;-80
2022/04/26 14:06:26;;;;;;;0.90;0.90;;;13.30;51.60;12.70;100434;;;;580464;247;24096;-80
2022/04/26 14:08:54;;;;;;;0.90;0.90;;;13.30;51.00;12.70;100427;;;;580092;247;24137;-79
2022/04/26 14:11:24;;;;;;;2.07;1.30;;;13.20;51.60;12.60;100431;;;;580218;247;24137;-80
2022/04/26 14:22:13;;;;;;;0.90;0.90;;;12.80;53.40;12.20;100432;;;;580147;247;24145;-79
2022/04/26 14:24:41;;;;;;;1.40;1.30;;;12.80;53.40;12.10;100436;;;;579924;247;24089;-79
2022/04/26 14:27:10;;;;;;;1.40;0.97;;;12.80;53.90;12.10;100427;;;;579969;247;24099;-79
2022/04/26 14:29:40;;;;;;;1.93;1.30;;;12.70;55.10;12.10;100431;;;;579964;247;24125;-80
2022/04/26 14:32:09;;;;;;;1.07;1.00;;;12.70;55.50;12.10;100434;;;;580239;247;24130;-81
2022/04/26 14:34:38;;;;;;;1.90;1.43;;;12.70;55.60;12.10;100441;;;;579882;247;24206;-79
2022/04/26 14:37:09;;;;;;;3.20;1.63;;;12.70;55.30;12.10;100429;;;;579764;247;24158;-78
2022/04/26 14:39:33;;;;;;;0.90;0.90;;;12.70;55.10;12.10;100439;;;;579524;247;24133;-80
2022/04/26 14:42:09;;;;;;;0.87;0.80;;;12.70;55.00;12.10;100427;;;;579752;247;24104;-79
2022/04/26 14:44:34;;;;;;;1.50;1.40;;;12.70;55.10;12.10;100445;;;;579785;247;24105;-79
2022/04/26 14:47:06;;;;;;;2.50;1.33;;;12.80;55.70;12.10;100430;;;;579721;247;24097;-79
2022/04/26 14:49:36;;;;;;;1.50;1.40;;;12.80;55.90;12.20;100438;;;;579880;247;24121;-79
2022/04/26 14:52:06;;;;;;;1.87;1.17;;;12.80;56.20;12.10;100442;;;;579352;247;24140;-80
2022/04/26 14:54:32;;;;;;;4.47;1.40;;;12.80;56.30;12.00;100446;;;;579466;247;24120;-79
2022/04/26 14:57:06;;;;;;;2.00;1.10;;;12.70;56.20;11.90;100450;;;;579680;247;24129;-80
2022/04/26 14:59:31;;;;;;;0.97;0.97;;;12.60;56.70;11.90;100444;;;;571232;251;24239;-79
2022/04/26 15:01:58;;;;;;;3.03;1.27;;;12.50;56.70;11.80;100454;;;;571742;245;24164;-80
2022/04/26 15:04:26;;;;;;;4.33;1.57;;;12.50;56.20;11.70;100451;;;;582055;241;24102;-78
2022/04/26 15:06:58;;;;;;;3.03;1.03;;;12.40;56.10;11.70;100448;;;;582032;244;24089;-79
2022/04/26 15:17:40;;;;;;;1.10;1.00;;;12.00;57.30;11.40;100460;;;;571511;246;24164;-80
2022/04/26 15:20:08;;;;;;;3.20;1.30;;;12.00;57.80;11.40;100466;;;;578531;248;24114;-78
2022/04/26 15:22:42;;;;;;;2.13;1.40;;;12.00;57.90;11.50;100455;;;;578484;248;24126;-79
2022/04/26 15:25:10;;;;;;;1.60;1.10;;;12.10;57.40;11.60;100469;;;;578598;248;24151;-79
2022/04/26 15:27:40;;;;;;;1.37;1.30;;;12.20;57.70;11.60;100459;;;;580155;247;24089;-79
2022/04/26 15:30:12;;;;;;;1.77;1.33;;;12.30;57.50;11.70;100459;;;;580485;247;24090;-78
2022/04/26 15:32:40;;;;;;;3.03;2.30;;;12.30;57.70;11.70;100464;;;;580258;247;24101;-79
2022/04/26 15:35:10;;;;;;;8.43;2.10;;;12.30;58.30;11.70;100464;;;;580033;247;24144;-79